首页
METAR-TAF:

METAR-TAF

机场 :

Türkmenbaşy, 土库曼斯坦

纬度: 40-03-48N, 经度: 053-00-26E, 海拔: 86米

当前天气观测

该预报发布于38分钟前的15:00 UTC
风速6节,风向西北
温度 14°C
湿度 44%
气压 1002 hPa
能见度10公里或以上
1500米以下无云,无积雨云

METAR: UTAK 301500Z 31006KT CAVOK 14/02 Q1002 R16R/CLRD70 NOSIG

时间: 20:38 (15:38 UTC)

预报

该预报发布于5小时和8分钟前的10:30 UTC
预报有效从30日的 12点(UTC)到 31日的 12点(UTC)
风速16节,风向西
能见度10公里或以上
1500米以下无云,无积雨云
短暂存在
从 30日的 12点(UTC)到 30日的 17点(UTC)
风速16节,风向南转西南
短暂存在
从 30日的 17点(UTC)到 30日的 21点(UTC)
风速16节,风向北转西北
多云层高于2300英尺
多云层高于10000英尺
短暂存在
从 30日的 21点(UTC)到 31日的 04点(UTC)
能見度: 2500
多云层高于700英尺
多云层高于2000英尺
轻雾

TAF: UTAK 301030Z 3012/3112 27016KT CAVOK TEMPO 3012/3017 21016KT TEMPO 3017/3021 33016KT BKN023 BKN100 TEMPO 3021/3104 2500 BR BKN007 BKN020

超过4000个机场的气象观测和天气预报(METAR&TAF报告)。

可查询的气象台以黄色和红色小点在地图上表示。

将鼠标移到小点上方,可查看气象台名称。

然后点击查看天气观测和预报。

如需切换地图:点击带黑十字的绿色按钮放大地图;点击带横线的绿色按钮缩小地图;或者点击绿色箭头查看邻近地区的地图。


METAR-TAF: